sensor_id;sensor_type;location;lat;lon;timestamp;temperature;humidity
66831;DHT22;53739;44.224;22.528;2023-04-09T00:00:24;230.60;2252.80
66831;DHT22;53739;44.224;22.528;2023-04-09T00:02:50;230.60;2252.80
66831;DHT22;53739;44.224;22.528;2023-04-09T00:05:16;230.60;2252.80
66831;DHT22;53739;44.224;22.528;2023-04-09T00:07:42;230.60;2252.80
66831;DHT22;53739;44.224;22.528;2023-04-09T00:10:08;230.60;2252.80
66831;DHT22;53739;44.224;22.528;2023-04-09T00:12:33;230.60;2252.80
66831;DHT22;53739;44.224;22.528;2023-04-09T00:14:59;230.60;2252.80
66831;DHT22;53739;44.224;22.528;2023-04-09T00:17:25;230.60;2252.80
66831;DHT22;53739;44.224;22.528;2023-04-09T00:19:51;230.60;2252.80
66831;DHT22;53739;44.224;22.528;2023-04-09T00:22:17;230.60;2252.80
66831;DHT22;53739;44.224;22.528;2023-04-09T00:24:43;230.60;2252.80
66831;DHT22;53739;44.224;22.528;2023-04-09T00:27:08;230.60;2252.80
66831;DHT22;53739;44.224;22.528;2023-04-09T00:29:34;230.60;2252.80
66831;DHT22;53739;44.224;22.528;2023-04-09T00:32:00;230.50;2252.80
66831;DHT22;53739;44.224;22.528;2023-04-09T00:34:26;230.50;2252.80
66831;DHT22;53739;44.224;22.528;2023-04-09T00:36:52;230.60;2252.80
66831;DHT22;53739;44.224;22.528;2023-04-09T00:39:17;230.50;2252.80
66831;DHT22;53739;44.224;22.528;2023-04-09T00:41:43;230.60;2252.80
66831;DHT22;53739;44.224;22.528;2023-04-09T00:44:09;230.60;2252.80
66831;DHT22;53739;44.224;22.528;2023-04-09T00:46:35;230.60;2252.80
66831;DHT22;53739;44.224;22.528;2023-04-09T00:49:00;230.60;2252.80
66831;DHT22;53739;44.224;22.528;2023-04-09T00:51:27;230.60;2252.80
66831;DHT22;53739;44.224;22.528;2023-04-09T00:53:53;230.60;2252.80
66831;DHT22;53739;44.224;22.528;2023-04-09T00:56:21;230.60;2252.80
66831;DHT22;53739;44.224;22.528;2023-04-09T00:58:48;230.50;2252.80
66831;DHT22;53739;44.224;22.528;2023-04-09T01:01:14;230.60;2252.80
66831;DHT22;53739;44.224;22.528;2023-04-09T01:03:40;230.60;2252.80
66831;DHT22;53739;44.224;22.528;2023-04-09T01:06:21;230.60;2252.80
66831;DHT22;53739;44.224;22.528;2023-04-09T01:09:05;230.60;2252.80
66831;DHT22;53739;44.224;22.528;2023-04-09T01:11:42;230.60;2252.80
66831;DHT22;53739;44.224;22.528;2023-04-09T01:14:28;230.60;2252.80
66831;DHT22;53739;44.224;22.528;2023-04-09T01:17:03;230.60;2252.80
66831;DHT22;53739;44.224;22.528;2023-04-09T01:20:08;230.60;2252.80
66831;DHT22;53739;44.224;22.528;2023-04-09T01:22:47;230.60;2252.80
66831;DHT22;53739;44.224;22.528;2023-04-09T01:27:53;230.60;2252.80
66831;DHT22;53739;44.224;22.528;2023-04-09T01:30:21;230.50;2252.80
66831;DHT22;53739;44.224;22.528;2023-04-09T01:32:47;230.60;2252.80
66831;DHT22;53739;44.224;22.528;2023-04-09T01:35:13;230.60;2252.80
66831;DHT22;53739;44.224;22.528;2023-04-09T01:37:40;230.60;2252.80
66831;DHT22;53739;44.224;22.528;2023-04-09T01:40:06;230.60;2252.80
66831;DHT22;53739;44.224;22.528;2023-04-09T01:42:32;230.60;2252.80
66831;DHT22;53739;44.224;22.528;2023-04-09T01:45:00;230.60;2252.80
66831;DHT22;53739;44.224;22.528;2023-04-09T01:47:27;230.60;2252.80
66831;DHT22;53739;44.224;22.528;2023-04-09T01:49:53;230.60;2252.80
66831;DHT22;53739;44.224;22.528;2023-04-09T01:52:19;230.60;2252.80
66831;DHT22;53739;44.224;22.528;2023-04-09T01:54:44;230.60;2252.80
66831;DHT22;53739;44.224;22.528;2023-04-09T01:57:10;230.50;2252.80
66831;DHT22;53739;44.224;22.528;2023-04-09T01:59:36;230.50;2252.80
66831;DHT22;53739;44.224;22.528;2023-04-09T02:02:17;230.50;2252.80
66831;DHT22;53739;44.224;22.528;2023-04-09T02:04:46;230.40;2252.80
66831;DHT22;53739;44.224;22.528;2023-04-09T02:07:37;205.70;2252.80
66831;DHT22;53739;44.224;22.528;2023-04-09T02:10:08;205.70;2252.80
66831;DHT22;53739;44.224;22.528;2023-04-09T02:12:41;205.70;2252.80
66831;DHT22;53739;44.224;22.528;2023-04-09T02:15:08;205.60;2252.80
66831;DHT22;53739;44.224;22.528;2023-04-09T02:17:34;205.60;2252.80
66831;DHT22;53739;44.224;22.528;2023-04-09T02:20:00;205.60;2252.80
66831;DHT22;53739;44.224;22.528;2023-04-09T02:22:26;205.70;2252.80
66831;DHT22;53739;44.224;22.528;2023-04-09T02:24:52;205.70;2252.80
66831;DHT22;53739;44.224;22.528;2023-04-09T02:27:17;205.70;2252.80
66831;DHT22;53739;44.224;22.528;2023-04-09T02:29:43;205.60;2252.80
66831;DHT22;53739;44.224;22.528;2023-04-09T02:32:09;205.60;2252.80
66831;DHT22;53739;44.224;22.528;2023-04-09T02:34:35;205.60;2252.80
66831;DHT22;53739;44.224;22.528;2023-04-09T02:37:00;205.60;2252.80
66831;DHT22;53739;44.224;22.528;2023-04-09T02:39:26;205.60;2252.80
66831;DHT22;53739;44.224;22.528;2023-04-09T02:41:52;205.70;2252.80
66831;DHT22;53739;44.224;22.528;2023-04-09T02:44:17;205.70;2252.80
66831;DHT22;53739;44.224;22.528;2023-04-09T02:46:45;205.70;2252.80
66831;DHT22;53739;44.224;22.528;2023-04-09T02:49:11;205.70;2252.80
66831;DHT22;53739;44.224;22.528;2023-04-09T02:51:36;205.70;2252.80
66831;DHT22;53739;44.224;22.528;2023-04-09T02:54:03;205.60;2252.80
66831;DHT22;53739;44.224;22.528;2023-04-09T02:56:29;205.60;2252.80
66831;DHT22;53739;44.224;22.528;2023-04-09T02:58:55;205.70;2252.80
66831;DHT22;53739;44.224;22.528;2023-04-09T03:01:20;205.70;2252.80
66831;DHT22;53739;44.224;22.528;2023-04-09T03:03:47;205.60;2252.80
66831;DHT22;53739;44.224;22.528;2023-04-09T03:06:13;205.60;2252.80
66831;DHT22;53739;44.224;22.528;2023-04-09T03:08:38;205.50;2252.80
66831;DHT22;53739;44.224;22.528;2023-04-09T03:11:04;205.40;2252.80
66831;DHT22;53739;44.224;22.528;2023-04-09T11:37:02;307.20;2304.00
66831;DHT22;53739;44.224;22.528;2023-04-09T11:39:42;307.20;2304.00
66831;DHT22;53739;44.224;22.528;2023-04-09T11:42:44;282.50;2278.40
66831;DHT22;53739;44.224;22.528;2023-04-09T11:48:13;282.40;2278.40
66831;DHT22;53739;44.224;22.528;2023-04-09T11:50:40;282.40;2278.40
66831;DHT22;53739;44.224;22.528;2023-04-09T11:53:22;282.40;2278.40
66831;DHT22;53739;44.224;22.528;2023-04-09T11:55:52;282.50;2278.40
66831;DHT22;53739;44.224;22.528;2023-04-09T11:58:21;282.50;2278.40
66831;DHT22;53739;44.224;22.528;2023-04-09T12:00:52;307.20;2304.00
66831;DHT22;53739;44.224;22.528;2023-04-09T12:03:18;307.30;2304.00
66831;DHT22;53739;44.224;22.528;2023-04-09T12:05:50;307.40;2304.00
66831;DHT22;53739;44.224;22.528;2023-04-09T12:08:16;307.30;2304.00
66831;DHT22;53739;44.224;22.528;2023-04-09T12:10:50;307.30;2304.00
66831;DHT22;53739;44.224;22.528;2023-04-09T12:13:40;307.40;2304.00
66831;DHT22;53739;44.224;22.528;2023-04-09T12:16:13;307.30;2304.00
66831;DHT22;53739;44.224;22.528;2023-04-09T12:18:39;307.20;2304.00
66831;DHT22;53739;44.224;22.528;2023-04-09T12:21:07;307.20;2304.00
66831;DHT22;53739;44.224;22.528;2023-04-09T12:23:39;282.50;2278.40
66831;DHT22;53739;44.224;22.528;2023-04-09T12:26:05;282.50;2278.40
66831;DHT22;53739;44.224;22.528;2023-04-09T12:31:37;307.20;2304.00
66831;DHT22;53739;44.224;22.528;2023-04-09T12:34:03;282.50;2278.40
66831;DHT22;53739;44.224;22.528;2023-04-09T12:36:32;307.20;2304.00
66831;DHT22;53739;44.224;22.528;2023-04-09T12:38:57;282.50;2278.40
66831;DHT22;53739;44.224;22.528;2023-04-09T12:41:23;282.50;2278.40
66831;DHT22;53739;44.224;22.528;2023-04-09T12:43:49;282.50;2278.40
66831;DHT22;53739;44.224;22.528;2023-04-09T12:46:17;307.20;2304.00
66831;DHT22;53739;44.224;22.528;2023-04-09T12:48:43;307.30;2304.00
66831;DHT22;53739;44.224;22.528;2023-04-09T12:51:12;307.30;2304.00
66831;DHT22;53739;44.224;22.528;2023-04-09T13:04:03;307.90;2304.00
66831;DHT22;53739;44.224;22.528;2023-04-09T13:12:03;308.10;2304.00
66831;DHT22;53739;44.224;22.528;2023-04-09T13:20:35;333.00;2329.60
66831;DHT22;53739;44.224;22.528;2023-04-09T13:23:01;332.90;2329.60
66831;DHT22;53739;44.224;22.528;2023-04-09T13:25:36;333.00;2329.60
66831;DHT22;53739;44.224;22.528;2023-04-09T13:28:02;333.00;2329.60
66831;DHT22;53739;44.224;22.528;2023-04-09T13:35:27;333.00;2329.60
66831;DHT22;53739;44.224;22.528;2023-04-09T13:37:53;333.30;2329.60
66831;DHT22;53739;44.224;22.528;2023-04-09T13:40:28;333.30;2329.60
66831;DHT22;53739;44.224;22.528;2023-04-09T13:43:04;333.40;2329.60
66831;DHT22;53739;44.224;22.528;2023-04-09T13:49:30;333.30;2329.60
66831;DHT22;53739;44.224;22.528;2023-04-09T13:58:49;333.20;2329.60
66831;DHT22;53739;44.224;22.528;2023-04-09T14:01:27;333.30;2329.60
66831;DHT22;53739;44.224;22.528;2023-04-09T14:04:03;333.10;2329.60
66831;DHT22;53739;44.224;22.528;2023-04-09T14:06:37;333.20;2329.60
66831;DHT22;53739;44.224;22.528;2023-04-09T14:09:06;333.00;2329.60
66831;DHT22;53739;44.224;22.528;2023-04-09T14:33:59;333.70;2329.60
66831;DHT22;53739;44.224;22.528;2023-04-09T14:36:25;333.70;2329.60
66831;DHT22;53739;44.224;22.528;2023-04-09T14:41:18;358.60;2329.60
66831;DHT22;53739;44.224;22.528;2023-04-09T14:43:48;358.80;2329.60
66831;DHT22;53739;44.224;22.528;2023-04-09T14:46:22;358.60;2329.60
66831;DHT22;53739;44.224;22.528;2023-04-09T14:48:47;358.60;2329.60
66831;DHT22;53739;44.224;22.528;2023-04-09T14:51:13;333.70;2329.60
66831;DHT22;53739;44.224;22.528;2023-04-09T14:53:48;333.70;2329.60
66831;DHT22;53739;44.224;22.528;2023-04-09T15:45:00;332.90;2329.60
66831;DHT22;53739;44.224;22.528;2023-04-09T16:46:52;307.50;2304.00
66831;DHT22;53739;44.224;22.528;2023-04-09T16:49:18;307.50;2304.00
66831;DHT22;53739;44.224;22.528;2023-04-09T16:51:44;307.40;2304.00
66831;DHT22;53739;44.224;22.528;2023-04-09T18:27:20;256.70;2252.80
66831;DHT22;53739;44.224;22.528;2023-04-09T18:36:46;256.60;2252.80
66831;DHT22;53739;44.224;22.528;2023-04-09T18:53:12;256.40;2252.80
66831;DHT22;53739;44.224;22.528;2023-04-09T18:55:38;256.30;2252.80
66831;DHT22;53739;44.224;22.528;2023-04-09T18:58:05;256.30;2252.80
66831;DHT22;53739;44.224;22.528;2023-04-09T19:00:37;256.30;2252.80
66831;DHT22;53739;44.224;22.528;2023-04-09T19:03:07;256.30;2252.80
66831;DHT22;53739;44.224;22.528;2023-04-09T19:05:33;256.40;2252.80
66831;DHT22;53739;44.224;22.528;2023-04-09T19:08:00;256.40;2252.80
66831;DHT22;53739;44.224;22.528;2023-04-09T19:10:36;256.30;2252.80
66831;DHT22;53739;44.224;22.528;2023-04-09T19:13:16;256.30;2252.80
66831;DHT22;53739;44.224;22.528;2023-04-09T19:15:46;256.30;2252.80
66831;DHT22;53739;44.224;22.528;2023-04-09T19:21:37;256.30;2252.80
66831;DHT22;53739;44.224;22.528;2023-04-09T19:24:04;256.20;2252.80
66831;DHT22;53739;44.224;22.528;2023-04-09T19:29:37;256.20;2252.80
66831;DHT22;53739;44.224;22.528;2023-04-09T20:01:56;231.30;2252.80
66831;DHT22;53739;44.224;22.528;2023-04-09T20:04:28;231.20;2252.80
66831;DHT22;53739;44.224;22.528;2023-04-09T20:10:21;231.20;2252.80
66831;DHT22;53739;44.224;22.528;2023-04-09T20:12:52;231.20;2252.80
66831;DHT22;53739;44.224;22.528;2023-04-09T22:33:24;231.30;2252.80
66831;DHT22;53739;44.224;22.528;2023-04-09T22:35:51;231.30;2252.80
66831;DHT22;53739;44.224;22.528;2023-04-09T22:38:35;231.20;2252.80
66831;DHT22;53739;44.224;22.528;2023-04-09T22:41:35;231.20;2252.80
66831;DHT22;53739;44.224;22.528;2023-04-09T23:32:29;230.80;2252.80
